sensor_id;sensor_type;location;lat;lon;timestamp;temperature;humidity
51029;DHT22;37054;52.054;8.600;2023-09-12T00:01:08;25.30;53.40
51029;DHT22;37054;52.054;8.600;2023-09-12T00:03:34;25.30;53.50
51029;DHT22;37054;52.054;8.600;2023-09-12T00:06:00;25.20;53.50
51029;DHT22;37054;52.054;8.600;2023-09-12T00:08:26;25.10;53.30
51029;DHT22;37054;52.054;8.600;2023-09-12T00:11:24;25.10;53.20
51029;DHT22;37054;52.054;8.600;2023-09-12T00:13:43;25.00;53.30
51029;DHT22;37054;52.054;8.600;2023-09-12T00:16:09;25.00;53.30
51029;DHT22;37054;52.054;8.600;2023-09-12T00:18:36;24.90;53.40
51029;DHT22;37054;52.054;8.600;2023-09-12T00:21:01;24.80;53.60
51029;DHT22;37054;52.054;8.600;2023-09-12T00:23:28;24.80;53.70
51029;DHT22;37054;52.054;8.600;2023-09-12T00:25:53;24.80;54.00
51029;DHT22;37054;52.054;8.600;2023-09-12T00:28:19;24.80;54.20
51029;DHT22;37054;52.054;8.600;2023-09-12T00:30:45;24.80;54.00
51029;DHT22;37054;52.054;8.600;2023-09-12T00:33:10;24.80;53.90
51029;DHT22;37054;52.054;8.600;2023-09-12T00:35:36;24.80;53.80
51029;DHT22;37054;52.054;8.600;2023-09-12T00:38:01;24.80;53.90
51029;DHT22;37054;52.054;8.600;2023-09-12T00:40:27;24.90;54.00
51029;DHT22;37054;52.054;8.600;2023-09-12T00:42:52;24.90;54.00
51029;DHT22;37054;52.054;8.600;2023-09-12T00:45:18;25.00;53.90
51029;DHT22;37054;52.054;8.600;2023-09-12T00:47:43;25.00;53.90
51029;DHT22;37054;52.054;8.600;2023-09-12T00:50:09;25.00;53.70
51029;DHT22;37054;52.054;8.600;2023-09-12T00:52:35;25.10;53.70
51029;DHT22;37054;52.054;8.600;2023-09-12T00:55:02;25.10;53.60
51029;DHT22;37054;52.054;8.600;2023-09-12T00:57:28;25.10;53.50
51029;DHT22;37054;52.054;8.600;2023-09-12T00:59:54;25.10;53.60
51029;DHT22;37054;52.054;8.600;2023-09-12T01:02:20;25.20;53.60
51029;DHT22;37054;52.054;8.600;2023-09-12T01:04:46;25.20;53.60
51029;DHT22;37054;52.054;8.600;2023-09-12T01:07:12;25.20;53.60
51029;DHT22;37054;52.054;8.600;2023-09-12T01:09:37;25.20;53.80
51029;DHT22;37054;52.054;8.600;2023-09-12T01:12:03;25.30;54.00
51029;DHT22;37054;52.054;8.600;2023-09-12T01:14:29;25.30;54.50
51029;DHT22;37054;52.054;8.600;2023-09-12T01:16:55;25.20;55.00
51029;DHT22;37054;52.054;8.600;2023-09-12T01:19:20;25.20;55.30
51029;DHT22;37054;52.054;8.600;2023-09-12T01:29:38;25.00;56.60
51029;DHT22;37054;52.054;8.600;2023-09-12T01:32:05;25.00;57.10
51029;DHT22;37054;52.054;8.600;2023-09-12T01:34:31;25.00;57.70
51029;DHT22;37054;52.054;8.600;2023-09-12T01:36:56;24.80;57.90
51029;DHT22;37054;52.054;8.600;2023-09-12T01:39:21;24.80;57.70
51029;DHT22;37054;52.054;8.600;2023-09-12T01:41:47;24.80;57.80
51029;DHT22;37054;52.054;8.600;2023-09-12T01:44:13;24.70;58.10
51029;DHT22;37054;52.054;8.600;2023-09-12T01:46:39;24.70;58.20
51029;DHT22;37054;52.054;8.600;2023-09-12T01:49:05;24.70;58.60
51029;DHT22;37054;52.054;8.600;2023-09-12T01:51:32;24.70;58.40
51029;DHT22;37054;52.054;8.600;2023-09-12T01:53:58;24.70;58.30
51029;DHT22;37054;52.054;8.600;2023-09-12T01:56:23;24.70;58.40
51029;DHT22;37054;52.054;8.600;2023-09-12T01:58:49;24.80;58.30
51029;DHT22;37054;52.054;8.600;2023-09-12T02:01:14;24.80;58.00
51029;DHT22;37054;52.054;8.600;2023-09-12T02:03:40;24.80;57.80
51029;DHT22;37054;52.054;8.600;2023-09-12T02:06:05;24.90;57.50
51029;DHT22;37054;52.054;8.600;2023-09-12T02:08:31;24.90;57.70
51029;DHT22;37054;52.054;8.600;2023-09-12T02:10:56;24.90;57.30
51029;DHT22;37054;52.054;8.600;2023-09-12T02:13:21;24.90;57.20
51029;DHT22;37054;52.054;8.600;2023-09-12T02:15:47;24.80;57.10
51029;DHT22;37054;52.054;8.600;2023-09-12T02:18:12;24.80;56.90
51029;DHT22;37054;52.054;8.600;2023-09-12T02:20:38;24.80;56.90
51029;DHT22;37054;52.054;8.600;2023-09-12T02:23:04;24.70;56.80
51029;DHT22;37054;52.054;8.600;2023-09-12T02:25:30;24.70;56.80
51029;DHT22;37054;52.054;8.600;2023-09-12T02:27:55;24.70;57.00
51029;DHT22;37054;52.054;8.600;2023-09-12T02:30:20;24.70;57.20
51029;DHT22;37054;52.054;8.600;2023-09-12T02:32:46;24.70;57.40
51029;DHT22;37054;52.054;8.600;2023-09-12T02:35:11;24.80;57.60
51029;DHT22;37054;52.054;8.600;2023-09-12T02:37:37;24.80;58.20
51029;DHT22;37054;52.054;8.600;2023-09-12T02:40:03;24.80;58.80
51029;DHT22;37054;52.054;8.600;2023-09-12T02:42:30;24.90;59.20
51029;DHT22;37054;52.054;8.600;2023-09-12T02:44:56;24.90;59.60
51029;DHT22;37054;52.054;8.600;2023-09-12T02:47:21;24.90;59.70
51029;DHT22;37054;52.054;8.600;2023-09-12T02:49:47;25.00;60.00
51029;DHT22;37054;52.054;8.600;2023-09-12T02:52:12;25.00;60.20
51029;DHT22;37054;52.054;8.600;2023-09-12T02:54:37;25.00;60.30
51029;DHT22;37054;52.054;8.600;2023-09-12T02:57:03;25.00;60.30
51029;DHT22;37054;52.054;8.600;2023-09-12T02:59:29;25.00;60.50
51029;DHT22;37054;52.054;8.600;2023-09-12T03:01:54;25.10;60.70
51029;DHT22;37054;52.054;8.600;2023-09-12T03:04:20;25.00;60.70
51029;DHT22;37054;52.054;8.600;2023-09-12T03:06:45;25.00;60.70
51029;DHT22;37054;52.054;8.600;2023-09-12T03:09:11;24.90;60.90
51029;DHT22;37054;52.054;8.600;2023-09-12T03:11:37;24.90;61.40
51029;DHT22;37054;52.054;8.600;2023-09-12T03:14:02;24.80;61.70
51029;DHT22;37054;52.054;8.600;2023-09-12T03:16:27;24.70;61.80
51029;DHT22;37054;52.054;8.600;2023-09-12T03:18:53;24.70;62.00
51029;DHT22;37054;52.054;8.600;2023-09-12T03:21:18;24.70;61.80
51029;DHT22;37054;52.054;8.600;2023-09-12T03:23:44;24.70;61.80
51029;DHT22;37054;52.054;8.600;2023-09-12T03:26:09;24.70;61.80
51029;DHT22;37054;52.054;8.600;2023-09-12T03:28:35;24.70;61.70
51029;DHT22;37054;52.054;8.600;2023-09-12T03:31:07;24.80;62.00
51029;DHT22;37054;52.054;8.600;2023-09-12T03:33:32;24.70;61.70
51029;DHT22;37054;52.054;8.600;2023-09-12T03:35:58;24.70;61.40
51029;DHT22;37054;52.054;8.600;2023-09-12T03:38:23;24.70;61.10
51029;DHT22;37054;52.054;8.600;2023-09-12T03:40:49;24.70;61.00
51029;DHT22;37054;52.054;8.600;2023-09-12T03:43:14;24.70;61.10
51029;DHT22;37054;52.054;8.600;2023-09-12T03:45:40;24.60;60.90
51029;DHT22;37054;52.054;8.600;2023-09-12T03:48:05;24.60;60.70
51029;DHT22;37054;52.054;8.600;2023-09-12T03:50:31;24.60;60.80
51029;DHT22;37054;52.054;8.600;2023-09-12T03:52:56;24.60;60.60
51029;DHT22;37054;52.054;8.600;2023-09-12T03:55:22;24.60;60.70
51029;DHT22;37054;52.054;8.600;2023-09-12T03:57:47;24.60;60.70
51029;DHT22;37054;52.054;8.600;2023-09-12T04:00:13;24.70;60.70
51029;DHT22;37054;52.054;8.600;2023-09-12T04:02:39;24.70;60.70
51029;DHT22;37054;52.054;8.600;2023-09-12T04:05:04;24.70;60.80
51029;DHT22;37054;52.054;8.600;2023-09-12T04:07:30;24.80;60.60
51029;DHT22;37054;52.054;8.600;2023-09-12T04:09:55;24.80;60.80
51029;DHT22;37054;52.054;8.600;2023-09-12T04:12:21;24.70;60.80
51029;DHT22;37054;52.054;8.600;2023-09-12T04:14:49;24.80;60.70
51029;DHT22;37054;52.054;8.600;2023-09-12T04:17:14;24.80;60.60
51029;DHT22;37054;52.054;8.600;2023-09-12T04:19:39;24.70;60.90
51029;DHT22;37054;52.054;8.600;2023-09-12T04:22:05;24.60;61.20
51029;DHT22;37054;52.054;8.600;2023-09-12T04:24:30;24.50;61.50
51029;DHT22;37054;52.054;8.600;2023-09-12T04:26:56;24.40;61.70
51029;DHT22;37054;52.054;8.600;2023-09-12T04:29:21;24.40;61.80
51029;DHT22;37054;52.054;8.600;2023-09-12T04:31:47;24.30;61.70
51029;DHT22;37054;52.054;8.600;2023-09-12T04:34:12;24.30;61.90
51029;DHT22;37054;52.054;8.600;2023-09-12T04:36:38;24.40;61.80
51029;DHT22;37054;52.054;8.600;2023-09-12T04:39:03;24.40;61.70
51029;DHT22;37054;52.054;8.600;2023-09-12T04:41:30;24.40;61.70
51029;DHT22;37054;52.054;8.600;2023-09-12T04:43:55;24.40;61.70
51029;DHT22;37054;52.054;8.600;2023-09-12T04:46:22;24.30;61.50
51029;DHT22;37054;52.054;8.600;2023-09-12T04:48:47;24.40;61.50
51029;DHT22;37054;52.054;8.600;2023-09-12T04:51:13;24.30;62.70
51029;DHT22;37054;52.054;8.600;2023-09-12T04:53:38;24.00;64.30
51029;DHT22;37054;52.054;8.600;2023-09-12T04:56:05;23.80;65.40
51029;DHT22;37054;52.054;8.600;2023-09-12T04:58:31;23.60;69.10
51029;DHT22;37054;52.054;8.600;2023-09-12T05:00:57;23.40;69.70
51029;DHT22;37054;52.054;8.600;2023-09-12T05:03:22;23.30;69.80
51029;DHT22;37054;52.054;8.600;2023-09-12T05:05:48;23.10;70.20
51029;DHT22;37054;52.054;8.600;2023-09-12T05:08:15;23.00;70.30
51029;DHT22;37054;52.054;8.600;2023-09-12T05:10:40;22.80;70.40
51029;DHT22;37054;52.054;8.600;2023-09-12T05:13:06;22.70;70.90
51029;DHT22;37054;52.054;8.600;2023-09-12T05:15:31;22.70;71.40
51029;DHT22;37054;52.054;8.600;2023-09-12T05:17:57;22.60;71.50
51029;DHT22;37054;52.054;8.600;2023-09-12T05:20:22;22.70;71.80
51029;DHT22;37054;52.054;8.600;2023-09-12T05:22:48;22.60;71.80
51029;DHT22;37054;52.054;8.600;2023-09-12T05:25:13;22.60;71.70
51029;DHT22;37054;52.054;8.600;2023-09-12T05:27:39;22.50;71.70
51029;DHT22;37054;52.054;8.600;2023-09-12T05:30:04;22.50;71.70
51029;DHT22;37054;52.054;8.600;2023-09-12T05:32:30;22.40;71.80
51029;DHT22;37054;52.054;8.600;2023-09-12T05:34:56;22.30;72.00
51029;DHT22;37054;52.054;8.600;2023-09-12T05:37:21;22.30;72.10
51029;DHT22;37054;52.054;8.600;2023-09-12T05:39:47;22.30;72.20
51029;DHT22;37054;52.054;8.600;2023-09-12T05:42:12;22.30;72.30
51029;DHT22;37054;52.054;8.600;2023-09-12T05:44:40;22.30;72.30
51029;DHT22;37054;52.054;8.600;2023-09-12T05:47:05;22.30;72.20
51029;DHT22;37054;52.054;8.600;2023-09-12T05:49:32;22.20;72.10
51029;DHT22;37054;52.054;8.600;2023-09-12T05:51:59;22.20;72.50
51029;DHT22;37054;52.054;8.600;2023-09-12T05:54:24;22.30;72.80
51029;DHT22;37054;52.054;8.600;2023-09-12T05:56:50;22.20;72.70
51029;DHT22;37054;52.054;8.600;2023-09-12T05:59:16;22.30;72.80
51029;DHT22;37054;52.054;8.600;2023-09-12T06:01:42;22.30;72.70
51029;DHT22;37054;52.054;8.600;2023-09-12T06:04:07;22.30;72.60
51029;DHT22;37054;52.054;8.600;2023-09-12T06:06:33;22.30;72.80
51029;DHT22;37054;52.054;8.600;2023-09-12T06:08:58;22.30;72.70
51029;DHT22;37054;52.054;8.600;2023-09-12T06:11:24;22.30;72.70
51029;DHT22;37054;52.054;8.600;2023-09-12T06:13:49;22.30;72.80
51029;DHT22;37054;52.054;8.600;2023-09-12T06:16:15;22.30;72.80
51029;DHT22;37054;52.054;8.600;2023-09-12T06:18:40;22.30;72.80
51029;DHT22;37054;52.054;8.600;2023-09-12T06:21:06;22.30;72.90
51029;DHT22;37054;52.054;8.600;2023-09-12T06:23:34;22.30;72.90
51029;DHT22;37054;52.054;8.600;2023-09-12T06:25:59;22.30;72.60
51029;DHT22;37054;52.054;8.600;2023-09-12T06:28:28;22.30;73.00
51029;DHT22;37054;52.054;8.600;2023-09-12T06:30:53;22.30;73.00
51029;DHT22;37054;52.054;8.600;2023-09-12T06:33:19;22.40;73.20
51029;DHT22;37054;52.054;8.600;2023-09-12T06:35:47;22.40;73.20
51029;DHT22;37054;52.054;8.600;2023-09-12T06:38:13;22.30;73.00
51029;DHT22;37054;52.054;8.600;2023-09-12T06:40:38;22.40;73.00
51029;DHT22;37054;52.054;8.600;2023-09-12T06:43:04;22.40;73.00
51029;DHT22;37054;52.054;8.600;2023-09-12T06:45:29;22.50;73.00
51029;DHT22;37054;52.054;8.600;2023-09-12T06:47:58;22.50;72.90
51029;DHT22;37054;52.054;8.600;2023-09-12T06:50:23;22.50;72.90
51029;DHT22;37054;52.054;8.600;2023-09-12T06:52:49;22.50;72.90
51029;DHT22;37054;52.054;8.600;2023-09-12T06:55:14;22.50;73.00
51029;DHT22;37054;52.054;8.600;2023-09-12T06:57:40;22.50;73.10
51029;DHT22;37054;52.054;8.600;2023-09-12T07:00:06;22.60;73.10
51029;DHT22;37054;52.054;8.600;2023-09-12T07:02:32;22.50;73.10
51029;DHT22;37054;52.054;8.600;2023-09-12T07:04:58;22.50;73.00
51029;DHT22;37054;52.054;8.600;2023-09-12T07:07:24;22.50;72.70
51029;DHT22;37054;52.054;8.600;2023-09-12T07:09:49;22.50;72.70
51029;DHT22;37054;52.054;8.600;2023-09-12T07:12:15;22.50;72.80
51029;DHT22;37054;52.054;8.600;2023-09-12T07:14:40;22.50;73.10
51029;DHT22;37054;52.054;8.600;2023-09-12T07:17:06;22.50;73.30
51029;DHT22;37054;52.054;8.600;2023-09-12T07:19:31;22.50;73.00
51029;DHT22;37054;52.054;8.600;2023-09-12T07:21:57;22.40;73.10
51029;DHT22;37054;52.054;8.600;2023-09-12T07:24:26;22.40;72.90
51029;DHT22;37054;52.054;8.600;2023-09-12T07:26:51;22.40;72.80
51029;DHT22;37054;52.054;8.600;2023-09-12T07:29:17;22.40;72.90
51029;DHT22;37054;52.054;8.600;2023-09-12T07:31:42;22.40;73.00
51029;DHT22;37054;52.054;8.600;2023-09-12T07:34:08;22.30;72.90
51029;DHT22;37054;52.054;8.600;2023-09-12T07:36:34;22.30;73.00
51029;DHT22;37054;52.054;8.600;2023-09-12T07:39:02;22.20;72.90
51029;DHT22;37054;52.054;8.600;2023-09-12T07:41:29;22.20;73.10
51029;DHT22;37054;52.054;8.600;2023-09-12T07:43:55;22.20;73.20
51029;DHT22;37054;52.054;8.600;2023-09-12T07:46:20;22.20;73.50
51029;DHT22;37054;52.054;8.600;2023-09-12T07:48:46;22.10;73.50
51029;DHT22;37054;52.054;8.600;2023-09-12T07:51:12;22.00;73.20
51029;DHT22;37054;52.054;8.600;2023-09-12T07:53:37;22.00;73.30
51029;DHT22;37054;52.054;8.600;2023-09-12T07:56:03;22.00;73.60
51029;DHT22;37054;52.054;8.600;2023-09-12T07:58:28;22.10;73.80
51029;DHT22;37054;52.054;8.600;2023-09-12T08:00:54;22.10;73.70
51029;DHT22;37054;52.054;8.600;2023-09-12T08:03:19;22.10;73.60
51029;DHT22;37054;52.054;8.600;2023-09-12T08:05:53;22.10;73.60
51029;DHT22;37054;52.054;8.600;2023-09-12T08:08:19;22.10;73.70
51029;DHT22;37054;52.054;8.600;2023-09-12T08:10:44;22.10;73.60
51029;DHT22;37054;52.054;8.600;2023-09-12T08:13:11;22.00;73.40
51029;DHT22;37054;52.054;8.600;2023-09-12T08:15:36;22.00;73.60
51029;DHT22;37054;52.054;8.600;2023-09-12T08:18:02;21.90;73.70
51029;DHT22;37054;52.054;8.600;2023-09-12T08:20:28;21.90;73.60
51029;DHT22;37054;52.054;8.600;2023-09-12T08:22:53;21.80;73.80
51029;DHT22;37054;52.054;8.600;2023-09-12T08:25:19;21.80;74.00
51029;DHT22;37054;52.054;8.600;2023-09-12T08:27:44;21.80;74.30
51029;DHT22;37054;52.054;8.600;2023-09-12T08:30:10;21.80;74.40
51029;DHT22;37054;52.054;8.600;2023-09-12T08:32:35;21.90;74.70
51029;DHT22;37054;52.054;8.600;2023-09-12T08:35:01;21.90;74.60
51029;DHT22;37054;52.054;8.600;2023-09-12T08:37:28;22.00;74.70
51029;DHT22;37054;52.054;8.600;2023-09-12T08:39:53;22.00;74.70
51029;DHT22;37054;52.054;8.600;2023-09-12T08:42:21;22.10;74.60
51029;DHT22;37054;52.054;8.600;2023-09-12T08:44:47;22.10;74.60
51029;DHT22;37054;52.054;8.600;2023-09-12T08:47:13;22.10;74.50
51029;DHT22;37054;52.054;8.600;2023-09-12T08:49:39;22.10;74.40
51029;DHT22;37054;52.054;8.600;2023-09-12T08:52:07;22.10;74.50
51029;DHT22;37054;52.054;8.600;2023-09-12T08:54:32;22.20;74.60
51029;DHT22;37054;52.054;8.600;2023-09-12T08:56:58;22.20;74.50
51029;DHT22;37054;52.054;8.600;2023-09-12T08:59:25;22.20;74.40
51029;DHT22;37054;52.054;8.600;2023-09-12T09:01:51;22.20;74.30
51029;DHT22;37054;52.054;8.600;2023-09-12T09:04:18;22.20;74.30
51029;DHT22;37054;52.054;8.600;2023-09-12T09:06:44;22.30;74.30
51029;DHT22;37054;52.054;8.600;2023-09-12T09:09:10;22.30;74.30
51029;DHT22;37054;52.054;8.600;2023-09-12T09:11:36;22.20;74.50
51029;DHT22;37054;52.054;8.600;2023-09-12T09:14:02;22.30;74.50
51029;DHT22;37054;52.054;8.600;2023-09-12T09:16:28;22.30;74.50
51029;DHT22;37054;52.054;8.600;2023-09-12T09:21:24;22.30;74.20
51029;DHT22;37054;52.054;8.600;2023-09-12T09:23:51;22.30;74.30
51029;DHT22;37054;52.054;8.600;2023-09-12T09:26:16;22.30;74.50
51029;DHT22;37054;52.054;8.600;2023-09-12T09:28:42;22.30;74.50
51029;DHT22;37054;52.054;8.600;2023-09-12T09:31:12;22.30;74.50
51029;DHT22;37054;52.054;8.600;2023-09-12T09:33:37;22.40;74.60
51029;DHT22;37054;52.054;8.600;2023-09-12T09:36:04;22.50;74.60
51029;DHT22;37054;52.054;8.600;2023-09-12T09:38:30;22.50;74.50
51029;DHT22;37054;52.054;8.600;2023-09-12T09:40:56;22.60;74.60
51029;DHT22;37054;52.054;8.600;2023-09-12T09:43:21;22.60;74.20
51029;DHT22;37054;52.054;8.600;2023-09-12T09:45:47;22.60;74.20
51029;DHT22;37054;52.054;8.600;2023-09-12T09:48:19;22.60;74.30
51029;DHT22;37054;52.054;8.600;2023-09-12T09:50:45;22.50;74.10
51029;DHT22;37054;52.054;8.600;2023-09-12T09:53:10;22.50;74.10
51029;DHT22;37054;52.054;8.600;2023-09-12T09:55:36;22.50;74.20
51029;DHT22;37054;52.054;8.600;2023-09-12T09:58:02;22.50;74.30
51029;DHT22;37054;52.054;8.600;2023-09-12T10:00:30;22.50;74.40
51029;DHT22;37054;52.054;8.600;2023-09-12T10:02:58;22.50;74.30
51029;DHT22;37054;52.054;8.600;2023-09-12T10:05:24;22.50;74.20
51029;DHT22;37054;52.054;8.600;2023-09-12T10:07:50;22.50;74.30
51029;DHT22;37054;52.054;8.600;2023-09-12T10:10:16;22.60;74.30
51029;DHT22;37054;52.054;8.600;2023-09-12T10:12:43;22.60;74.20
51029;DHT22;37054;52.054;8.600;2023-09-12T10:15:10;22.50;73.80
51029;DHT22;37054;52.054;8.600;2023-09-12T10:17:37;22.40;74.20
51029;DHT22;37054;52.054;8.600;2023-09-12T10:20:05;22.50;74.30
51029;DHT22;37054;52.054;8.600;2023-09-12T10:22:43;22.50;74.30
51029;DHT22;37054;52.054;8.600;2023-09-12T10:25:12;22.40;74.30
51029;DHT22;37054;52.054;8.600;2023-09-12T10:27:38;22.50;74.30
51029;DHT22;37054;52.054;8.600;2023-09-12T10:30:04;22.50;74.40
51029;DHT22;37054;52.054;8.600;2023-09-12T10:32:30;22.50;74.50
51029;DHT22;37054;52.054;8.600;2023-09-12T10:34:57;22.50;74.40
51029;DHT22;37054;52.054;8.600;2023-09-12T10:37:23;22.50;74.30
51029;DHT22;37054;52.054;8.600;2023-09-12T10:39:50;22.50;74.10
51029;DHT22;37054;52.054;8.600;2023-09-12T10:42:18;22.40;74.00
51029;DHT22;37054;52.054;8.600;2023-09-12T10:44:45;22.50;74.00
51029;DHT22;37054;52.054;8.600;2023-09-12T10:47:11;22.40;74.00
51029;DHT22;37054;52.054;8.600;2023-09-12T10:49:37;22.40;74.10
51029;DHT22;37054;52.054;8.600;2023-09-12T10:52:02;22.40;74.10
51029;DHT22;37054;52.054;8.600;2023-09-12T10:54:38;22.40;74.10
51029;DHT22;37054;52.054;8.600;2023-09-12T10:57:07;22.40;74.20
51029;DHT22;37054;52.054;8.600;2023-09-12T10:59:33;22.40;74.30
51029;DHT22;37054;52.054;8.600;2023-09-12T11:05:53;22.50;74.30
51029;DHT22;37054;52.054;8.600;2023-09-12T11:07:56;22.50;74.40
51029;DHT22;37054;52.054;8.600;2023-09-12T11:10:22;22.60;74.40
51029;DHT22;37054;52.054;8.600;2023-09-12T11:12:51;22.70;74.50
51029;DHT22;37054;52.054;8.600;2023-09-12T11:15:17;22.80;74.60
51029;DHT22;37054;52.054;8.600;2023-09-12T11:17:44;23.00;74.70
51029;DHT22;37054;52.054;8.600;2023-09-12T11:20:10;23.20;74.90
51029;DHT22;37054;52.054;8.600;2023-09-12T11:22:39;23.40;74.90
51029;DHT22;37054;52.054;8.600;2023-09-12T11:30:17;24.20;75.50
51029;DHT22;37054;52.054;8.600;2023-09-12T11:32:44;24.60;76.00
51029;DHT22;37054;52.054;8.600;2023-09-12T11:35:09;25.10;76.30
51029;DHT22;37054;52.054;8.600;2023-09-12T11:37:35;25.50;75.90
51029;DHT22;37054;52.054;8.600;2023-09-12T11:40:23;26.00;75.80
51029;DHT22;37054;52.054;8.600;2023-09-12T11:42:48;26.30;75.10
51029;DHT22;37054;52.054;8.600;2023-09-12T11:45:16;26.70;74.70
51029;DHT22;37054;52.054;8.600;2023-09-12T11:47:43;27.00;74.70
51029;DHT22;37054;52.054;8.600;2023-09-12T11:55:30;27.80;73.30
51029;DHT22;37054;52.054;8.600;2023-09-12T11:57:56;28.00;72.90
51029;DHT22;37054;52.054;8.600;2023-09-12T12:00:22;28.00;72.80
51029;DHT22;37054;52.054;8.600;2023-09-12T12:02:47;28.10;73.00
51029;DHT22;37054;52.054;8.600;2023-09-12T12:05:13;28.30;73.40
51029;DHT22;37054;52.054;8.600;2023-09-12T12:07:38;28.50;73.40
51029;DHT22;37054;52.054;8.600;2023-09-12T12:10:04;28.60;73.10
51029;DHT22;37054;52.054;8.600;2023-09-12T12:12:30;28.70;72.70
51029;DHT22;37054;52.054;8.600;2023-09-12T12:14:55;28.70;72.40
51029;DHT22;37054;52.054;8.600;2023-09-12T12:17:21;28.80;73.20
51029;DHT22;37054;52.054;8.600;2023-09-12T12:19:46;29.00;73.20
51029;DHT22;37054;52.054;8.600;2023-09-12T12:22:12;29.10;73.10
51029;DHT22;37054;52.054;8.600;2023-09-12T12:24:38;29.30;72.80
51029;DHT22;37054;52.054;8.600;2023-09-12T12:27:04;29.50;72.70
51029;DHT22;37054;52.054;8.600;2023-09-12T12:29:29;29.70;72.90
51029;DHT22;37054;52.054;8.600;2023-09-12T12:31:59;29.80;72.00
51029;DHT22;37054;52.054;8.600;2023-09-12T12:34:25;29.80;72.20
51029;DHT22;37054;52.054;8.600;2023-09-12T12:36:50;29.80;71.70
51029;DHT22;37054;52.054;8.600;2023-09-12T12:39:16;29.80;71.90
51029;DHT22;37054;52.054;8.600;2023-09-12T12:41:42;30.10;72.50
51029;DHT22;37054;52.054;8.600;2023-09-12T12:44:07;30.40;72.50
51029;DHT22;37054;52.054;8.600;2023-09-12T12:46:33;30.60;72.30
51029;DHT22;37054;52.054;8.600;2023-09-12T12:48:58;30.80;72.50
51029;DHT22;37054;52.054;8.600;2023-09-12T12:51:24;31.00;70.80
51029;DHT22;37054;52.054;8.600;2023-09-12T12:53:51;31.00;70.90
51029;DHT22;37054;52.054;8.600;2023-09-12T12:56:17;31.10;70.80
51029;DHT22;37054;52.054;8.600;2023-09-12T12:58:47;31.20;70.20
51029;DHT22;37054;52.054;8.600;2023-09-12T13:01:13;31.20;70.80
51029;DHT22;37054;52.054;8.600;2023-09-12T13:03:39;31.20;70.90
51029;DHT22;37054;52.054;8.600;2023-09-12T13:06:05;31.30;71.10
51029;DHT22;37054;52.054;8.600;2023-09-12T13:08:32;31.40;71.10
51029;DHT22;37054;52.054;8.600;2023-09-12T13:11:00;31.40;70.30
51029;DHT22;37054;52.054;8.600;2023-09-12T13:13:26;31.30;70.20
51029;DHT22;37054;52.054;8.600;2023-09-12T13:15:52;31.20;69.90
51029;DHT22;37054;52.054;8.600;2023-09-12T13:18:17;31.10;70.40
51029;DHT22;37054;52.054;8.600;2023-09-12T13:20:43;31.10;70.60
51029;DHT22;37054;52.054;8.600;2023-09-12T13:23:08;31.00;70.20
51029;DHT22;37054;52.054;8.600;2023-09-12T13:25:34;30.90;70.60
51029;DHT22;37054;52.054;8.600;2023-09-12T13:27:59;30.90;71.10
51029;DHT22;37054;52.054;8.600;2023-09-12T13:30:25;31.00;71.40
51029;DHT22;37054;52.054;8.600;2023-09-12T13:32:50;31.10;71.20
51029;DHT22;37054;52.054;8.600;2023-09-12T13:35:16;31.10;70.40
51029;DHT22;37054;52.054;8.600;2023-09-12T13:37:42;30.90;69.80
51029;DHT22;37054;52.054;8.600;2023-09-12T13:40:07;30.70;70.60
51029;DHT22;37054;52.054;8.600;2023-09-12T13:42:34;30.60;71.50
51029;DHT22;37054;52.054;8.600;2023-09-12T13:44:59;30.50;71.60
51029;DHT22;37054;52.054;8.600;2023-09-12T13:47:25;30.40;71.90
51029;DHT22;37054;52.054;8.600;2023-09-12T13:49:51;30.30;71.60
51029;DHT22;37054;52.054;8.600;2023-09-12T13:52:22;30.20;71.40
51029;DHT22;37054;52.054;8.600;2023-09-12T13:54:48;30.00;71.80
51029;DHT22;37054;52.054;8.600;2023-09-12T13:57:13;29.90;72.10
51029;DHT22;37054;52.054;8.600;2023-09-12T13:59:39;29.80;71.20
51029;DHT22;37054;52.054;8.600;2023-09-12T14:02:04;29.50;71.50
51029;DHT22;37054;52.054;8.600;2023-09-12T14:04:30;29.40;71.80
51029;DHT22;37054;52.054;8.600;2023-09-12T14:06:55;29.30;72.00
51029;DHT22;37054;52.054;8.600;2023-09-12T14:09:21;29.30;72.70
51029;DHT22;37054;52.054;8.600;2023-09-12T14:11:47;29.30;72.80
51029;DHT22;37054;52.054;8.600;2023-09-12T14:14:12;29.30;72.80
51029;DHT22;37054;52.054;8.600;2023-09-12T14:16:38;29.20;72.50
51029;DHT22;37054;52.054;8.600;2023-09-12T14:19:03;29.10;72.90
51029;DHT22;37054;52.054;8.600;2023-09-12T14:21:29;29.10;73.20
51029;DHT22;37054;52.054;8.600;2023-09-12T14:23:54;29.20;73.60
51029;DHT22;37054;52.054;8.600;2023-09-12T14:26:20;29.30;73.90
51029;DHT22;37054;52.054;8.600;2023-09-12T14:28:45;29.30;73.30
51029;DHT22;37054;52.054;8.600;2023-09-12T14:31:11;29.20;72.90
51029;DHT22;37054;52.054;8.600;2023-09-12T14:33:39;29.20;72.90
51029;DHT22;37054;52.054;8.600;2023-09-12T14:36:08;29.10;72.80
51029;DHT22;37054;52.054;8.600;2023-09-12T14:38:34;29.00;73.30
51029;DHT22;37054;52.054;8.600;2023-09-12T14:40:59;29.00;72.90
51029;DHT22;37054;52.054;8.600;2023-09-12T14:43:25;28.90;72.80
51029;DHT22;37054;52.054;8.600;2023-09-12T14:45:53;28.80;72.80
51029;DHT22;37054;52.054;8.600;2023-09-12T14:48:19;28.80;73.40
51029;DHT22;37054;52.054;8.600;2023-09-12T14:50:44;28.80;73.40
51029;DHT22;37054;52.054;8.600;2023-09-12T14:53:14;28.70;73.40
51029;DHT22;37054;52.054;8.600;2023-09-12T14:55:40;28.70;73.50
51029;DHT22;37054;52.054;8.600;2023-09-12T14:58:06;28.70;73.40
51029;DHT22;37054;52.054;8.600;2023-09-12T15:00:31;28.60;73.30
51029;DHT22;37054;52.054;8.600;2023-09-12T15:02:59;28.60;73.40
51029;DHT22;37054;52.054;8.600;2023-09-12T15:05:25;28.50;73.50
51029;DHT22;37054;52.054;8.600;2023-09-12T15:07:50;28.50;73.50
51029;DHT22;37054;52.054;8.600;2023-09-12T15:10:16;28.60;73.30
51029;DHT22;37054;52.054;8.600;2023-09-12T15:12:42;28.50;73.40
51029;DHT22;37054;52.054;8.600;2023-09-12T15:15:07;28.50;73.50
51029;DHT22;37054;52.054;8.600;2023-09-12T15:17:33;28.60;73.60
51029;DHT22;37054;52.054;8.600;2023-09-12T15:19:58;28.60;73.40
51029;DHT22;37054;52.054;8.600;2023-09-12T15:22:24;28.50;73.30
51029;DHT22;37054;52.054;8.600;2023-09-12T15:24:49;28.50;73.30
51029;DHT22;37054;52.054;8.600;2023-09-12T15:27:15;28.50;73.40
51029;DHT22;37054;52.054;8.600;2023-09-12T15:29:40;28.50;73.40
51029;DHT22;37054;52.054;8.600;2023-09-12T15:32:06;28.50;73.60
51029;DHT22;37054;52.054;8.600;2023-09-12T15:34:32;28.50;73.60
51029;DHT22;37054;52.054;8.600;2023-09-12T15:37:08;28.50;73.10
51029;DHT22;37054;52.054;8.600;2023-09-12T15:39:34;28.50;73.20
51029;DHT22;37054;52.054;8.600;2023-09-12T15:41:59;28.40;73.50
51029;DHT22;37054;52.054;8.600;2023-09-12T15:44:25;28.40;73.10
51029;DHT22;37054;52.054;8.600;2023-09-12T15:46:51;28.40;73.20